Time;durP1;ratioP1;P1;durP2;ratioP2;P2;SDS_P1;SDS_P2;PMS_P1;PMS_P2;Temp;Humidity;BMP_temperature;BMP_pressure;BME280_temperature;BME280_humidity;BME280_pressure;Samples;Min_cycle;Max_cycle;Signal;HPM_P1;HPM_P2
2021/04/24 00:02:19;;;;;;;2.50;2.10;;;;;;;4.85;70.35;99360.86;1659797;86;21614;-60
2021/04/24 00:04:47;;;;;;;3.67;2.20;;;;;;;4.83;70.33;99360.17;1690886;83;20971;-60
2021/04/24 00:07:16;;;;;;;2.47;2.15;;;;;;;4.80;70.33;99359.12;1690877;83;21576;-60
2021/04/24 00:09:44;;;;;;;5.55;2.42;;;;;;;4.76;70.49;99356.42;1692379;83;21381;-59
2021/04/24 00:12:11;;;;;;;2.83;1.82;;;;;;;4.72;70.56;99363.42;1693019;83;21077;-59
2021/04/24 00:14:39;;;;;;;2.58;1.95;;;;;;;4.67;70.70;99365.61;1690777;83;21104;-59
2021/04/24 00:17:06;;;;;;;2.45;2.15;;;;;;;4.63;70.88;99366.86;1690917;84;20991;-60
2021/04/24 00:19:34;;;;;;;3.55;1.70;;;;;;;4.60;70.97;99367.97;1693140;83;21137;-59
2021/04/24 00:22:01;;;;;;;2.27;1.95;;;;;;;4.56;71.04;99369.22;1690825;83;21370;-58
2021/04/24 00:24:29;;;;;;;2.37;1.98;;;;;;;4.52;71.29;99367.80;1659767;86;21088;-60
2021/04/24 00:26:56;;;;;;;3.85;1.62;;;;;;;4.48;71.48;99371.69;1680380;83;21031;-61
2021/04/24 00:29:25;;;;;;;1.45;1.35;;;;;;;4.47;71.63;99364.74;1661909;84;21174;-59
2021/04/24 00:31:52;;;;;;;2.67;1.60;;;;;;;4.47;71.72;99371.33;1681584;83;21170;-58
2021/04/24 00:34:20;;;;;;;2.50;1.80;;;;;;;4.48;71.86;99371.69;1659812;84;21387;-59
2021/04/24 00:36:47;;;;;;;3.10;1.60;;;;;;;4.45;72.10;99357.47;1681490;83;21166;-58
2021/04/24 00:39:15;;;;;;;2.98;1.60;;;;;;;4.45;72.12;99353.52;1662064;84;21105;-58
2021/04/24 00:41:43;;;;;;;2.10;1.47;;;;;;;4.48;71.90;99341.88;1690665;83;21223;-59
2021/04/24 00:44:10;;;;;;;1.75;1.20;;;;;;;4.48;72.06;99340.08;1690819;84;21141;-59
2021/04/24 00:46:43;;;;;;;1.35;1.10;;;;;;;4.43;72.20;99340.97;1680739;83;21275;-59
2021/04/24 00:49:10;;;;;;;1.70;1.20;;;;;;;4.41;72.17;99344.20;1650308;86;21021;-59
2021/04/24 00:51:38;;;;;;;1.82;1.30;;;;;;;4.39;71.89;99336.92;1669158;83;21189;-61
2021/04/24 00:54:06;;;;;;;1.30;1.10;;;;;;;4.38;71.85;99342.34;1681291;84;21172;-59
2021/04/24 00:56:34;;;;;;;1.57;0.98;;;;;;;4.38;71.79;99345.30;1690810;83;21155;-59
2021/04/24 00:59:02;;;;;;;1.25;1.10;;;;;;;4.40;71.66;99345.66;1690596;83;21469;-60
2021/04/24 01:01:29;;;;;;;1.15;1.05;;;;;;;4.41;71.43;99341.56;1673480;83;21431;-59
2021/04/24 01:03:57;;;;;;;1.67;1.02;;;;;;;4.40;71.24;99343.87;1659788;84;21162;-59
2021/04/24 01:06:24;;;;;;;1.20;1.10;;;;;;;4.38;71.14;99340.03;1674709;83;21162;-60
2021/04/24 01:08:51;;;;;;;3.17;1.07;;;;;;;4.34;71.30;99347.88;1708972;83;21211;-58
2021/04/24 01:11:19;;;;;;;1.55;1.25;;;;;;;4.34;71.19;99352.30;1678392;83;21209;-58
2021/04/24 01:13:47;;;;;;;1.60;1.00;;;;;;;4.34;71.32;99349.19;1659783;84;21135;-58
2021/04/24 01:16:14;;;;;;;1.80;1.02;;;;;;;4.36;71.04;99359.09;1656427;84;21049;-58
2021/04/24 01:18:42;;;;;;;1.27;1.00;;;;;;;4.36;70.86;99365.68;1678947;83;21189;-61
2021/04/24 01:21:09;;;;;;;1.67;1.25;;;;;;;4.35;70.79;99363.20;1660091;84;21082;-59
2021/04/24 01:23:37;;;;;;;1.70;0.95;;;;;;;4.34;70.70;99366.78;1671214;84;22713;-59
2021/04/24 01:26:04;;;;;;;1.37;1.10;;;;;;;4.33;70.42;99368.58;1690754;83;21657;-59
2021/04/24 01:28:32;;;;;;;1.42;1.10;;;;;;;4.32;69.76;99373.98;1652098;84;21228;-58
2021/04/24 01:30:59;;;;;;;2.05;1.10;;;;;;;4.32;69.37;99368.25;1661011;83;21141;-59
2021/04/24 01:33:28;;;;;;;0.95;0.72;;;;;;;4.31;68.99;99361.77;1659739;84;21188;-58
2021/04/24 01:35:55;;;;;;;1.05;0.93;;;;;;;4.30;68.66;99363.57;1676415;84;21868;-59
2021/04/24 01:38:23;;;;;;;1.00;0.80;;;;;;;4.29;68.47;99357.97;1690461;83;22006;-61
2021/04/24 01:40:52;;;;;;;1.15;0.95;;;;;;;4.29;68.05;99367.67;1659756;84;21185;-58
2021/04/24 01:43:20;;;;;;;1.15;1.00;;;;;;;4.33;67.60;99367.73;1681614;83;21191;-59
2021/04/24 01:45:48;;;;;;;2.12;0.68;;;;;;;4.39;66.95;99367.22;1659988;84;21212;-59
2021/04/24 01:48:16;;;;;;;2.08;0.82;;;;;;;4.42;66.36;99359.52;1693058;83;22374;-59
2021/04/24 01:50:46;;;;;;;0.78;0.60;;;;;;;4.44;65.91;99362.38;1649867;86;21156;-61
2021/04/24 01:53:19;;;;;;;0.88;0.62;;;;;;;4.46;65.51;99364.38;1637901;85;21187;-61
2021/04/24 01:55:49;;;;;;;0.82;0.60;;;;;;;4.43;65.21;99360.73;1675499;84;21103;-58
2021/04/24 01:58:21;;;;;;;1.50;0.57;;;;;;;4.42;65.12;99365.63;1619586;86;21121;-59
2021/04/24 02:00:56;;;;;;;1.72;0.62;;;;;;;4.40;64.91;99362.30;1682340;83;21198;-58
2021/04/24 02:03:24;;;;;;;1.23;0.77;;;;;;;4.37;65.16;99370.47;1659646;83;21214;-59
2021/04/24 02:05:51;;;;;;;0.70;0.60;;;;;;;4.34;65.49;99370.73;1659845;84;21841;-59
2021/04/24 02:08:27;;;;;;;0.78;0.78;;;;;;;4.28;65.92;99366.83;1679901;83;21179;-59
2021/04/24 02:10:55;;;;;;;2.70;1.35;;;;;;;4.19;66.60;99372.91;1683222;83;21182;-60
2021/04/24 02:13:26;;;;;;;1.60;1.17;;;;;;;4.06;67.50;99370.14;1659866;84;22183;-61
2021/04/24 02:15:54;;;;;;;3.55;1.45;;;;;;;3.96;68.47;99377.16;1687390;83;21661;-58
2021/04/24 02:18:22;;;;;;;1.65;1.00;;;;;;;3.88;69.51;99374.34;1657801;86;21183;-58
2021/04/24 02:20:50;;;;;;;1.70;1.40;;;;;;;3.79;70.14;99385.16;1645685;84;21091;-59
2021/04/24 02:23:18;;;;;;;2.10;1.35;;;;;;;3.69;70.77;99379.02;1629968;84;21143;-58
2021/04/24 02:25:45;;;;;;;1.72;1.32;;;;;;;3.63;71.54;99382.99;1630031;84;22354;-59
2021/04/24 02:28:13;;;;;;;1.62;1.45;;;;;;;3.56;72.00;99384.48;1667338;83;21157;-61
2021/04/24 02:30:42;;;;;;;1.95;1.72;;;;;;;3.47;72.53;99382.59;1660000;84;20943;-59
2021/04/24 02:33:10;;;;;;;4.47;1.65;;;;;;;3.41;73.07;99380.50;1684586;84;21156;-59
2021/04/24 02:35:54;;;;;;;2.20;1.77;;;;;;;3.39;73.70;99382.91;1678258;83;21635;-60
2021/04/24 02:38:30;;;;;;;2.50;1.65;;;;;;;3.34;74.05;99387.21;1684887;83;22269;-59
2021/04/24 02:41:03;;;;;;;2.02;1.82;;;;;;;3.31;74.54;99377.45;1659932;84;21028;-59
2021/04/24 02:43:31;;;;;;;2.08;1.85;;;;;;;3.26;74.96;99383.06;1629978;84;21000;-59
2021/04/24 02:46:00;;;;;;;2.70;1.98;;;;;;;3.22;75.40;99381.66;1633191;84;20980;-60
2021/04/24 02:48:28;;;;;;;2.62;2.30;;;;;;;3.22;75.78;99384.28;1653564;85;21092;-60
2021/04/24 02:50:55;;;;;;;4.08;2.60;;;;;;;3.25;76.04;99379.25;1678347;83;22179;-60
2021/04/24 02:53:22;;;;;;;3.25;2.95;;;;;;;3.28;76.30;99386.42;1659766;84;21086;-60
2021/04/24 02:55:50;;;;;;;2.98;2.65;;;;;;;3.28;76.48;99381.16;1670032;84;20955;-60
2021/04/24 02:58:18;;;;;;;3.05;2.27;;;;;;;3.27;76.56;99387.84;1693172;83;21003;-61
2021/04/24 03:00:46;;;;;;;2.92;2.22;;;;;;;3.26;76.67;99392.27;1659921;86;21155;-58
2021/04/24 03:03:14;;;;;;;4.03;3.33;;;;;;;3.21;76.84;99391.81;1647774;84;21373;-58
2021/04/24 03:05:42;;;;;;;5.33;3.60;;;;;;;3.14;77.04;99391.97;1629974;84;21194;-60
2021/04/24 03:08:10;;;;;;;3.37;3.00;;;;;;;3.10;77.40;99396.63;1641515;84;21125;-58
2021/04/24 03:10:39;;;;;;;4.62;3.17;;;;;;;3.08;77.73;99397.23;1659810;85;21159;-58
2021/04/24 03:13:07;;;;;;;4.35;3.05;;;;;;;3.07;77.93;99400.01;1680698;84;21184;-59
2021/04/24 03:15:35;;;;;;;4.25;3.17;;;;;;;3.09;78.21;99402.03;1666320;84;21386;-59
2021/04/24 03:18:03;;;;;;;3.45;2.95;;;;;;;3.08;78.32;99399.87;1672815;84;21603;-60
2021/04/24 03:20:31;;;;;;;4.12;3.08;;;;;;;3.16;78.44;99399.72;1671467;85;20959;-59
2021/04/24 03:23:00;;;;;;;5.50;3.20;;;;;;;3.21;78.49;99399.70;1690779;84;21149;-59
2021/04/24 03:25:28;;;;;;;2.60;2.40;;;;;;;3.32;78.38;99399.66;1677710;83;21189;-59
2021/04/24 03:27:55;;;;;;;4.33;2.90;;;;;;;3.42;78.33;99407.13;1662464;84;22110;-60
2021/04/24 03:30:23;;;;;;;6.53;2.65;;;;;;;3.53;78.35;99401.83;1681545;84;21232;-59
2021/04/24 03:32:50;;;;;;;3.00;2.55;;;;;;;3.63;78.12;99404.04;1671386;85;21577;-58
2021/04/24 03:35:18;;;;;;;5.92;2.60;;;;;;;3.76;77.96;99403.84;1630928;84;21075;-60
2021/04/24 03:37:45;;;;;;;2.35;1.95;;;;;;;3.92;77.76;99409.48;1635796;84;21098;-58
2021/04/24 03:40:14;;;;;;;2.42;2.05;;;;;;;4.05;76.91;99407.47;1681328;84;22294;-58
2021/04/24 03:42:42;;;;;;;2.95;2.05;;;;;;;4.10;76.07;99404.44;1646496;84;21185;-58
2021/04/24 03:45:18;;;;;;;3.33;2.37;;;;;;;4.07;75.80;99409.48;1646578;84;21060;-60
2021/04/24 03:47:51;;;;;;;3.08;2.15;;;;;;;4.10;75.76;99405.28;1653187;84;21599;-58
2021/04/24 03:50:19;;;;;;;2.33;1.90;;;;;;;4.26;75.61;99406.95;1677118;84;21180;-58
2021/04/24 03:52:48;;;;;;;3.25;1.98;;;;;;;4.52;75.24;99411.27;1668932;84;21553;-58
2021/04/24 03:55:16;;;;;;;3.25;1.92;;;;;;;4.79;74.66;99415.45;1646540;84;21193;-58
2021/04/24 03:57:47;;;;;;;2.62;2.42;;;;;;;5.10;73.77;99411.41;1651972;84;21559;-58
2021/04/24 04:00:20;;;;;;;2.45;2.25;;;;;;;5.40;72.83;99409.95;1674499;85;21052;-58
2021/04/24 04:02:52;;;;;;;2.67;1.90;;;;;;;5.72;71.70;99415.77;1672250;84;21090;-59
2021/04/24 04:05:19;;;;;;;3.70;2.70;;;;;;;6.03;70.29;99407.19;1684622;84;21389;-58
2021/04/24 04:07:48;;;;;;;2.58;2.20;;;;;;;6.30;69.52;99414.34;1674794;84;21183;-59
2021/04/24 04:10:16;;;;;;;3.25;1.98;;;;;;;6.64;68.52;99424.20;1689730;84;21236;-60
2021/04/24 04:12:45;;;;;;;2.70;2.00;;;;;;;6.95;66.89;99422.56;1647015;84;21157;-59
2021/04/24 04:15:15;;;;;;;3.20;2.33;;;;;;;7.20;66.07;99422.67;1663826;84;21144;-59
2021/04/24 04:18:04;;;;;;;3.55;2.00;;;;;;;7.45;64.96;99425.08;1677031;85;21358;-58
2021/04/24 04:20:32;;;;;;;2.30;2.10;;;;;;;7.68;64.22;99422.78;1666605;85;21210;-59
2021/04/24 04:23:00;;;;;;;2.60;2.40;;;;;;;7.95;62.73;99426.64;1677016;84;21233;-61
2021/04/24 04:25:27;;;;;;;2.58;2.33;;;;;;;8.13;62.08;99430.08;1676977;84;21244;-59
2021/04/24 04:27:55;;;;;;;2.75;2.15;;;;;;;8.36;61.57;99425.10;1676962;84;21168;-58
2021/04/24 04:30:24;;;;;;;2.72;2.37;;;;;;;8.67;60.43;99429.73;1679177;84;22134;-59
2021/04/24 04:32:51;;;;;;;2.83;2.22;;;;;;;8.90;59.53;99425.16;1677056;84;21643;-58
2021/04/24 04:35:20;;;;;;;3.00;2.47;;;;;;;9.10;58.77;99434.02;1668517;84;21196;-60
2021/04/24 04:37:47;;;;;;;3.45;2.22;;;;;;;9.35;57.71;99430.09;1660017;84;21232;-59
2021/04/24 04:40:15;;;;;;;3.00;2.70;;;;;;;9.54;57.16;99431.13;1686576;83;21130;-60
2021/04/24 04:42:44;;;;;;;4.15;2.58;;;;;;;9.75;56.55;99426.96;1659807;84;21376;-58
2021/04/24 04:45:12;;;;;;;2.40;2.20;;;;;;;10.10;56.02;99431.59;1681667;83;21095;-58
2021/04/24 04:47:40;;;;;;;2.35;2.12;;;;;;;10.51;55.07;99435.36;1659831;84;21672;-60
2021/04/24 04:50:11;;;;;;;2.70;2.25;;;;;;;10.82;53.98;99438.59;1667931;83;21094;-60
2021/04/24 04:52:40;;;;;;;4.37;2.58;;;;;;;11.10;52.48;99432.64;1678012;83;21098;-59
2021/04/24 04:55:08;;;;;;;3.17;2.87;;;;;;;11.19;51.25;99432.06;1659795;84;21212;-60
2021/04/24 04:57:36;;;;;;;2.22;2.02;;;;;;;11.34;51.18;99436.16;1670633;84;21084;-59
2021/04/24 05:00:09;;;;;;;3.87;2.42;;;;;;;11.63;50.76;99427.77;1673141;83;21595;-60
2021/04/24 05:02:38;;;;;;;3.15;2.20;;;;;;;11.90;49.46;99429.09;1659757;86;21140;-60
2021/04/24 05:05:07;;;;;;;2.80;2.20;;;;;;;12.10;49.02;99426.73;1648500;84;21639;-60
2021/04/24 05:07:34;;;;;;;3.42;2.83;;;;;;;12.33;48.22;99424.87;1689362;84;21447;-58
2021/04/24 05:10:05;;;;;;;3.58;2.45;;;;;;;12.52;47.68;99428.81;1675427;83;21166;-59
2021/04/24 05:12:32;;;;;;;3.75;2.30;;;;;;;12.67;46.59;99430.47;1653114;84;21085;-58
2021/04/24 05:15:00;;;;;;;2.50;2.20;;;;;;;12.82;46.25;99421.13;1649298;86;21172;-59
2021/04/24 05:17:27;;;;;;;4.90;2.45;;;;;;;12.94;46.06;99425.80;1671304;85;21242;-58
2021/04/24 05:19:54;;;;;;;2.87;2.15;;;;;;;13.06;45.64;99427.50;1647120;84;22190;-61
2021/04/24 05:22:22;;;;;;;2.52;2.00;;;;;;;13.28;45.28;99422.53;1657140;84;21611;-59
2021/04/24 05:24:49;;;;;;;2.90;2.20;;;;;;;13.43;44.24;99427.82;1655723;84;21142;-59
2021/04/24 05:27:17;;;;;;;2.42;2.22;;;;;;;13.58;44.52;99429.42;1643140;84;21081;-58
2021/04/24 05:29:45;;;;;;;2.60;2.30;;;;;;;13.78;43.32;99425.61;1691199;83;21156;-58
2021/04/24 05:32:13;;;;;;;2.98;2.52;;;;;;;13.86;42.90;99425.48;1692220;83;21319;-59
2021/04/24 05:34:40;;;;;;;2.65;2.45;;;;;;;14.06;42.76;99431.82;1702395;83;21081;-58
2021/04/24 05:37:08;;;;;;;2.65;2.00;;;;;;;14.32;41.66;99427.20;1655666;85;21100;-59
2021/04/24 05:39:35;;;;;;;4.70;2.62;;;;;;;14.32;41.12;99435.73;1675149;84;21155;-58
2021/04/24 05:42:04;;;;;;;2.98;2.52;;;;;;;14.21;40.77;99439.74;1630118;86;21642;-59
2021/04/24 05:44:32;;;;;;;3.70;2.30;;;;;;;13.94;40.46;99438.73;1635560;87;21449;-59
2021/04/24 05:47:00;;;;;;;3.62;2.37;;;;;;;13.73;41.12;99442.74;1628517;87;21236;-60
2021/04/24 05:49:30;;;;;;;4.17;2.30;;;;;;;13.68;40.82;99439.81;1634694;87;21619;-58
2021/04/24 05:51:56;;;;;;;3.62;2.20;;;;;;;13.59;40.95;99436.43;1627208;87;21191;-60
2021/04/24 05:54:24;;;;;;;2.42;2.17;;;;;;;13.63;41.26;99436.36;1628983;87;21215;-59
2021/04/24 05:56:51;;;;;;;5.25;2.37;;;;;;;13.79;40.82;99439.81;1635591;87;21390;-62
2021/04/24 05:59:19;;;;;;;4.53;2.50;;;;;;;13.91;40.54;99438.27;1633356;87;21148;-61
2021/04/24 06:01:47;;;;;;;4.37;2.22;;;;;;;14.03;39.82;99430.03;1635146;87;21634;-60
2021/04/24 06:04:14;;;;;;;8.23;2.80;;;;;;;14.04;39.85;99437.05;1627711;87;21144;-59
2021/04/24 06:06:44;;;;;;;5.17;2.40;;;;;;;14.30;39.35;99440.43;1632412;86;21231;-59
2021/04/24 06:09:24;;;;;;;4.05;2.40;;;;;;;14.45;38.83;99440.67;1682019;83;20991;-60
2021/04/24 06:11:53;;;;;;;4.37;1.90;;;;;;;14.57;38.80;99438.30;1658960;84;21524;-60
2021/04/24 06:14:20;;;;;;;3.80;2.30;;;;;;;14.90;38.32;99435.78;1658863;84;21628;-60
2021/04/24 06:16:48;;;;;;;3.33;2.25;;;;;;;15.27;37.65;99433.98;1652539;84;21066;-61
2021/04/24 06:19:15;;;;;;;5.12;2.00;;;;;;;15.36;35.93;99432.25;1674041;84;21225;-61
2021/04/24 06:21:43;;;;;;;3.00;1.70;;;;;;;15.21;36.11;99428.08;1639832;86;22824;-58
2021/04/24 06:24:10;;;;;;;4.65;2.05;;;;;;;15.22;35.86;99429.23;1664026;85;21221;-60
2021/04/24 06:26:38;;;;;;;3.50;2.22;;;;;;;15.20;36.30;99429.13;1671637;84;21124;-58
2021/04/24 06:29:06;;;;;;;5.78;2.50;;;;;;;15.33;36.48;99436.67;1679399;84;22105;-59
2021/04/24 06:31:35;;;;;;;4.58;2.08;;;;;;;15.67;36.10;99428.25;1637826;86;21175;-59
2021/04/24 06:34:04;;;;;;;3.20;2.37;;;;;;;16.06;34.55;99429.59;1676057;84;21362;-58
2021/04/24 06:36:32;;;;;;;6.15;2.72;;;;;;;16.20;33.55;99427.23;1676729;85;21593;-59
2021/04/24 06:39:05;;;;;;;5.92;2.77;;;;;;;16.18;34.05;99433.84;1676325;83;23022;-59
2021/04/24 06:41:29;;;;;;;4.35;2.40;;;;;;;16.41;34.07;99429.69;1676786;84;21205;-61
2021/04/24 06:43:57;;;;;;;3.50;2.30;;;;;;;16.49;33.39;99428.13;1675886;84;21638;-59
2021/04/24 06:46:24;;;;;;;3.58;2.25;;;;;;;16.28;33.26;99433.73;1657882;84;21456;-60
2021/04/24 06:48:55;;;;;;;5.33;2.35;;;;;;;16.01;33.29;99429.39;1679796;84;21122;-60
2021/04/24 06:51:22;;;;;;;5.25;2.52;;;;;;;15.72;33.46;99430.60;1666651;84;21383;-59
2021/04/24 06:53:52;;;;;;;2.52;2.20;;;;;;;15.82;34.09;99432.91;1657922;84;21261;-59
2021/04/24 06:56:20;;;;;;;4.12;2.55;;;;;;;16.04;33.44;99421.77;1647762;84;21174;-59
2021/04/24 06:58:49;;;;;;;6.20;2.27;;;;;;;16.17;33.65;99425.46;1664507;84;21581;-60
2021/04/24 07:01:16;;;;;;;2.80;1.85;;;;;;;16.27;33.52;99428.04;1669636;84;21639;-60
2021/04/24 07:03:45;;;;;;;1.80;1.67;;;;;;;16.26;33.31;99433.12;1659646;84;21182;-60
2021/04/24 07:06:13;;;;;;;2.90;2.08;;;;;;;16.11;32.98;99432.52;1661227;84;21703;-60
2021/04/24 07:08:40;;;;;;;4.28;1.82;;;;;;;15.99;33.32;99427.44;1676444;84;21163;-62
2021/04/24 07:11:09;;;;;;;2.95;1.65;;;;;;;16.08;33.37;99431.03;1658623;84;21989;-60
2021/04/24 07:13:38;;;;;;;2.27;1.82;;;;;;;16.16;32.61;99422.48;1668245;84;21175;-60
2021/04/24 07:16:10;;;;;;;2.30;1.60;;;;;;;15.87;32.49;99429.92;1648472;84;21070;-59
2021/04/24 07:18:35;;;;;;;6.67;1.75;;;;;;;15.52;32.98;99428.41;1673820;84;21292;-60
2021/04/24 07:21:05;;;;;;;5.08;1.42;;;;;;;15.33;32.99;99429.97;1640934;84;21231;-60
2021/04/24 07:23:36;;;;;;;2.62;1.50;;;;;;;15.10;32.48;99434.01;1656785;84;23534;-60
2021/04/24 07:26:08;;;;;;;2.52;1.40;;;;;;;14.73;32.77;99435.30;1644950;84;21142;-59
2021/04/24 07:28:36;;;;;;;2.30;1.75;;;;;;;14.64;33.22;99438.64;1651171;84;20953;-61
2021/04/24 07:31:09;;;;;;;2.98;1.82;;;;;;;14.44;32.65;99439.55;1610937;86;21265;-61
2021/04/24 07:33:42;;;;;;;4.40;2.95;;;;;;;14.00;33.14;99435.26;1616264;86;21156;-60
2021/04/24 07:36:09;;;;;;;3.40;1.70;;;;;;;13.59;33.59;99433.76;1611821;86;22304;-58
2021/04/24 07:38:37;;;;;;;3.27;2.40;;;;;;;13.52;33.95;99434.21;1612374;87;21122;-59
2021/04/24 07:41:12;;;;;;;1.85;1.27;;;;;;;13.33;33.85;99429.47;1617394;86;21256;-61
2021/04/24 07:43:42;;;;;;;3.20;1.70;;;;;;;13.11;34.15;99429.13;1640748;86;21171;-60
2021/04/24 07:46:09;;;;;;;4.17;2.12;;;;;;;12.90;34.36;99435.72;1638463;86;21134;-61
2021/04/24 07:48:37;;;;;;;2.15;1.80;;;;;;;12.92;34.88;99425.67;1689980;84;21415;-59
2021/04/24 07:51:05;;;;;;;4.15;1.60;;;;;;;13.01;34.92;99408.52;1659004;84;21139;-61
2021/04/24 07:53:34;;;;;;;2.30;1.70;;;;;;;13.11;34.46;99408.27;1672814;84;21463;-62
2021/04/24 07:56:02;;;;;;;2.42;1.82;;;;;;;13.12;34.64;99411.23;1685557;84;21119;-61
2021/04/24 07:58:30;;;;;;;2.27;1.92;;;;;;;13.00;34.57;99421.06;1675694;84;21021;-61
2021/04/24 08:00:57;;;;;;;3.58;2.05;;;;;;;12.89;34.92;99422.03;1685546;84;21268;-61
2021/04/24 08:03:24;;;;;;;4.35;1.95;;;;;;;12.74;34.63;99432.73;1665456;84;21097;-61
2021/04/24 08:05:53;;;;;;;2.55;1.77;;;;;;;12.60;34.52;99424.22;1658503;84;21487;-58
2021/04/24 08:08:20;;;;;;;2.92;2.20;;;;;;;12.33;34.43;99429.67;1681297;84;21140;-59
2021/04/24 08:10:48;;;;;;;4.05;2.70;;;;;;;11.99;35.32;99423.20;1678431;84;21213;-60
2021/04/24 08:13:15;;;;;;;2.83;1.92;;;;;;;11.72;35.88;99437.41;1653364;84;23614;-59
2021/04/24 08:15:43;;;;;;;2.30;1.65;;;;;;;11.46;35.83;99434.73;1680212;84;21133;-60
2021/04/24 08:18:10;;;;;;;2.95;1.95;;;;;;;11.24;36.31;99444.34;1671756;84;21719;-61
2021/04/24 08:20:38;;;;;;;3.37;2.50;;;;;;;11.02;36.91;99438.50;1669699;84;21049;-59
2021/04/24 08:23:05;;;;;;;6.90;3.22;;;;;;;10.85;37.24;99437.73;1670185;84;21148;-59
2021/04/24 08:25:33;;;;;;;4.35;2.20;;;;;;;10.70;37.43;99432.81;1667664;84;21581;-60
2021/04/24 08:28:04;;;;;;;2.72;1.75;;;;;;;10.65;37.66;99434.32;1665455;84;21134;-59
2021/04/24 08:30:31;;;;;;;5.12;2.27;;;;;;;10.70;37.70;99423.49;1654608;84;21148;-61
2021/04/24 08:32:58;;;;;;;2.20;2.00;;;;;;;10.90;37.57;99422.06;1627682;86;21232;-62
2021/04/24 08:35:26;;;;;;;5.12;3.77;;;;;;;11.34;37.25;99425.50;1639670;86;21606;-60
2021/04/24 08:37:53;;;;;;;3.10;2.65;;;;;;;11.78;36.50;99415.36;1642602;86;21296;-60
2021/04/24 08:40:21;;;;;;;3.00;1.80;;;;;;;12.05;35.95;99406.45;1646028;86;21196;-59
2021/04/24 08:42:48;;;;;;;3.52;1.80;;;;;;;12.15;35.35;99408.38;1649320;86;21049;-60
2021/04/24 08:48:04;;;;;;;2.33;1.57;;;;;;;12.10;34.21;99408.91;1839940;78;23368;-57
2021/04/24 08:50:32;;;;;;;4.40;1.50;;;;;;;11.89;34.26;99416.77;1811723;78;20903;-59
2021/04/24 08:53:01;;;;;;;2.72;1.70;;;;;;;11.75;34.34;99417.57;1807585;78;21366;-61
2021/04/24 08:55:35;;;;;;;2.15;1.40;;;;;;;11.66;34.42;99414.10;1812249;79;20981;-62
2021/04/24 08:58:05;;;;;;;5.10;2.20;;;;;;;11.68;34.58;99420.10;1805211;78;20986;-59
2021/04/24 09:00:38;;;;;;;4.62;2.10;;;;;;;11.69;34.29;99428.44;1804618;78;21005;-60
2021/04/24 09:03:07;;;;;;;9.35;1.60;;;;;;;11.54;34.58;99417.37;1730573;81;21065;-60
2021/04/24 09:05:35;;;;;;;13.83;2.65;;;;;;;11.14;35.43;99423.78;1744976;81;22391;-60
2021/04/24 09:08:05;;;;;;;9.38;2.12;;;;;;;10.58;37.72;99444.00;1751607;80;21017;-60
2021/04/24 09:10:43;;;;;;;3.30;1.40;;;;;;;9.79;39.35;99450.89;1764636;80;21002;-58
2021/04/24 09:13:19;;;;;;;1.62;1.10;;;;;;;9.37;40.38;99458.14;1745179;80;21055;-59
2021/04/24 09:15:47;;;;;;;;;;;;;;;9.18;40.49;99455.77;1746318;81;21139;-60
2021/04/24 09:21:03;;;;;;;4.45;1.22;;;;;;;9.25;39.48;99448.83;1847528;76;22591;-60
2021/04/24 09:23:35;;;;;;;5.90;1.47;;;;;;;9.29;39.02;99456.79;1811727;77;21008;-59
2021/04/24 09:26:09;;;;;;;7.87;1.40;;;;;;;9.33;38.57;99456.82;1813400;77;21496;-64
2021/04/24 09:28:41;;;;;;;3.98;1.20;;;;;;;9.36;39.01;99440.53;1811653;77;21009;-60
2021/04/24 09:31:16;;;;;;;2.42;1.52;;;;;;;9.41;39.19;99427.59;1819841;77;20946;-59
2021/04/24 09:33:51;;;;;;;2.08;1.30;;;;;;;9.55;39.25;99422.98;1810281;78;20929;-59
2021/04/24 09:36:23;;;;;;;4.85;2.60;;;;;;;9.90;39.32;99427.98;1810168;77;20933;-61
2021/04/24 09:38:54;;;;;;;7.90;1.77;;;;;;;10.49;39.79;99420.57;1755073;80;21197;-64
2021/04/24 09:41:27;;;;;;;7.25;1.67;;;;;;;11.12;38.79;99407.99;1775731;80;21462;-58
2021/04/24 09:44:07;;;;;;;3.08;1.98;;;;;;;11.84;37.82;99409.81;1776205;79;20991;-59
2021/04/24 09:46:50;;;;;;;3.55;2.45;;;;;;;12.48;36.35;99404.86;1775968;79;21046;-59
2021/04/24 09:49:31;;;;;;;3.72;2.47;;;;;;;13.04;34.81;99396.12;1750529;81;21124;-60
2021/04/24 09:52:01;;;;;;;4.35;2.62;;;;;;;13.45;33.70;99385.19;1785619;79;21363;-61
2021/04/24 09:54:46;;;;;;;4.78;3.12;;;;;;;13.39;33.63;99387.81;1786159;80;21125;-54
2021/04/24 09:57:21;;;;;;;2.87;2.25;;;;;;;12.98;34.78;99412.92;1779324;80;21575;-61
2021/04/24 09:59:57;;;;;;;3.05;2.05;;;;;;;12.66;39.81;99424.83;1779269;80;21144;-61
2021/04/24 10:02:37;;;;;;;2.15;1.90;;;;;;;12.29;37.20;99424.39;1785186;80;21163;-63
2021/04/24 10:05:18;;;;;;;3.40;2.70;;;;;;;11.82;36.97;99441.16;1779863;80;21651;-64
2021/04/24 10:07:53;;;;;;;2.40;2.20;;;;;;;11.41;37.34;99465.91;1779252;79;21014;-61
2021/04/24 10:10:32;;;;;;;6.53;2.58;;;;;;;10.96;38.99;99485.27;1778586;79;21500;-60
2021/04/24 10:13:03;;;;;;;6.12;3.30;;;;;;;10.65;41.30;99480.38;1777548;80;21081;-62
2021/04/24 10:15:41;;;;;;;2.62;2.30;;;;;;;10.34;42.82;99448.88;1771075;79;20939;-63
2021/04/24 10:18:11;;;;;;;4.80;2.02;;;;;;;10.29;43.98;99462.69;1757394;79;21441;-63
2021/04/24 10:20:43;;;;;;;3.92;2.08;;;;;;;10.44;43.80;99458.82;1749818;80;21496;-65
2021/04/24 10:23:13;;;;;;;3.00;2.10;;;;;;;10.53;43.39;99455.16;1753752;80;20938;-62
2021/04/24 10:25:40;;;;;;;4.95;2.40;;;;;;;10.79;43.36;99453.57;1778844;80;21083;-63
2021/04/24 10:28:08;;;;;;;3.83;2.08;;;;;;;11.16;42.76;99449.22;1753435;80;21007;-65
2021/04/24 10:30:40;;;;;;;3.42;2.08;;;;;;;11.43;42.26;99451.91;1770321;79;22844;-63
2021/04/24 10:33:07;;;;;;;2.98;2.50;;;;;;;11.63;41.86;99445.59;1739920;80;21569;-63
2021/04/24 10:35:34;;;;;;;2.98;2.10;;;;;;;11.75;40.82;99448.22;1739881;81;21168;-63
2021/04/24 10:38:03;;;;;;;2.58;2.33;;;;;;;11.64;40.47;99462.75;1722411;81;21100;-66
2021/04/24 10:40:31;;;;;;;2.40;1.70;;;;;;;11.50;40.68;99466.66;1768517;80;21110;-64
2021/04/24 10:42:59;;;;;;;3.15;1.80;;;;;;;11.33;39.50;99460.63;1747248;81;21467;-64
2021/04/24 10:45:33;;;;;;;2.95;1.40;;;;;;;10.97;39.57;99460.81;1736175;81;21196;-64
2021/04/24 10:48:02;;;;;;;3.47;1.82;;;;;;;10.71;39.97;99469.56;1762901;80;21124;-61
2021/04/24 10:50:48;;;;;;;3.10;1.70;;;;;;;10.51;39.80;99464.62;1737966;80;21160;-61
2021/04/24 10:53:24;;;;;;;3.85;1.35;;;;;;;10.39;39.87;99469.14;1733545;80;21131;-60
2021/04/24 10:55:54;;;;;;;2.33;1.42;;;;;;;10.35;39.79;99465.97;1732276;80;21290;-61
2021/04/24 10:58:24;;;;;;;1.95;1.25;;;;;;;10.36;40.18;99466.81;1750394;80;21005;-62
2021/04/24 11:00:58;;;;;;;3.08;0.70;;;;;;;10.45;39.05;99447.20;1733537;81;21192;-64
2021/04/24 11:03:46;;;;;;;0.95;0.72;;;;;;;10.59;37.70;99433.66;1726719;81;21064;-62
2021/04/24 11:06:22;;;;;;;0.62;0.60;;;;;;;10.77;36.40;99445.73;1749398;80;21056;-59
2021/04/24 11:08:53;;;;;;;4.33;0.70;;;;;;;11.05;35.90;99436.30;1735762;81;21206;-58
2021/04/24 11:11:22;;;;;;;4.58;0.75;;;;;;;11.38;34.78;99433.45;1742231;81;20950;-62
2021/04/24 11:13:54;;;;;;;1.07;0.88;;;;;;;11.68;34.41;99438.76;1759949;80;21862;-58
2021/04/24 11:16:31;;;;;;;2.10;1.00;;;;;;;11.97;33.57;99431.36;1719279;81;21089;-63
2021/04/24 11:18:54;;;;;;;1.52;0.75;;;;;;;12.26;33.20;99428.75;1744747;81;21135;-62
2021/04/24 11:21:29;;;;;;;0.75;0.50;;;;;;;12.60;32.60;99422.88;1766247;80;21371;-60
2021/04/24 11:24:00;;;;;;;4.05;0.93;;;;;;;12.91;31.63;99417.33;1765739;79;21094;-61
2021/04/24 11:26:42;;;;;;;2.35;0.95;;;;;;;13.12;31.43;99417.41;1757176;79;21019;-62
2021/04/24 11:29:14;;;;;;;2.65;1.17;;;;;;;13.35;31.17;99421.26;1762902;79;21117;-60
2021/04/24 11:32:08;;;;;;;1.92;0.68;;;;;;;13.44;30.95;99418.30;1758752;79;20923;-61
2021/04/24 11:34:46;;;;;;;1.45;0.75;;;;;;;13.41;30.82;99433.87;1760647;79;22272;-59
2021/04/24 11:37:23;;;;;;;2.55;1.17;;;;;;;13.15;31.05;99441.58;1766503;78;21661;-60
2021/04/24 11:40:28;;;;;;;5.15;1.50;;;;;;;12.68;33.18;99459.33;1735146;80;21138;-60
2021/04/24 11:43:02;;;;;;;1.42;0.80;;;;;;;12.08;35.47;99478.93;1758422;79;21118;-59
2021/04/24 11:45:59;;;;;;;1.57;1.00;;;;;;;11.33;37.98;99471.77;1760534;80;21163;-60
2021/04/24 11:48:51;;;;;;;2.90;1.17;;;;;;;10.66;39.90;99468.75;1761109;78;21206;-60
2021/04/24 11:51:44;;;;;;;3.30;1.55;;;;;;;10.03;41.49;99467.82;1757881;78;21224;-60
2021/04/24 11:54:37;;;;;;;2.58;1.70;;;;;;;9.70;42.46;99469.13;1765354;78;21007;-59
2021/04/24 11:57:18;;;;;;;10.15;3.83;;;;;;;9.61;42.67;99470.14;1763125;79;21138;-60